Time,TemperatureF,DewpointF,PressureIn,WindDirection,WindDirectionDegrees,WindSpeedMPH,WindSpeedGustMPH,Humidity,HourlyPrecipIn,Conditions,Clouds,dailyrainin,SoftwareType,DateUTC
2013-03-24 00:01:00,35.2,26.0,30.17,ENE,60,27.6,27.6,69,0.00,CLR,,0.00,WeatherDisplay:10.37,2013-03-24 00:01:00,
2013-03-24 00:07:00,35.2,26.0,30.17,East,93,25.3,25.3,69,0.00,CLR,,0.00,WeatherDisplay:10.37,2013-03-24 00:07:00,
2013-03-24 00:12:00,35.1,25.9,30.17,East,79,23.0,23.0,69,0.00,CLR,,0.00,WeatherDisplay:10.37,2013-03-24 00:12:00,
2013-03-24 00:17:00,35.2,26.0,30.17,ENE,57,28.0,28.0,69,0.00,CLR,,0.00,WeatherDisplay:10.37,2013-03-24 00:17:00,
2013-03-24 00:22:00,35.2,26.4,30.17,East,92,19.6,19.6,70,0.00,CLR,,0.00,WeatherDisplay:10.37,2013-03-24 00:22:00,
2013-03-24 00:28:00,35.2,26.7,30.17,ESE,113,19.6,19.6,71,0.00,CLR,,0.00,WeatherDisplay:10.37,2013-03-24 00:28:00,
2013-03-24 00:33:00,35.2,26.4,30.18,ENE,71,21.9,21.9,70,0.00,CLR,,0.00,WeatherDisplay:10.37,2013-03-24 00:33:00,
2013-03-24 00:39:00,35.2,27.1,30.17,East,89,16.1,16.1,72,0.00,CLR,,0.00,WeatherDisplay:10.37,2013-03-24 00:39:00,
2013-03-24 00:44:00,35.1,26.6,30.17,NE,56,20.7,20.7,71,0.00,CLR,,0.00,WeatherDisplay:10.37,2013-03-24 00:44:00,
2013-03-24 00:49:00,35.0,26.9,30.18,ESE,113,16.1,16.1,72,0.00,CLR,,0.00,WeatherDisplay:10.37,2013-03-24 00:49:00,
2013-03-24 00:55:00,35.1,27.0,30.18,East,88,16.1,16.1,72,0.00,CLR,,0.00,WeatherDisplay:10.37,2013-03-24 00:55:00,
2013-03-24 01:00:00,35.1,27.0,30.17,East,96,18.4,18.4,72,0.00,CLR,,0.00,WeatherDisplay:10.37,2013-03-24 01:00:00,
2013-03-24 01:05:00,35.0,27.2,30.17,ENE,72,16.1,16.1,73,0.00,CLR,,0.00,WeatherDisplay:10.37,2013-03-24 01:05:00,
2013-03-24 01:10:00,35.1,27.3,30.18,East,92,23.0,23.0,73,0.00,CLR,,0.00,WeatherDisplay:10.37,2013-03-24 01:10:00,
2013-03-24 01:15:00,35.2,27.4,30.17,ENE,74,26.5,26.5,73,0.00,CLR,,0.00,WeatherDisplay:10.37,2013-03-24 01:15:00,
2013-03-24 01:21:00,35.1,27.6,30.18,ENE,77,16.0,16.0,74,0.00,CLR,,0.00,WeatherDisplay:10.37,2013-03-24 01:21:00,
2013-03-24 01:27:00,35.0,27.5,30.17,ENE,60,26.0,26.0,74,0.00,CLR,,0.00,WeatherDisplay:10.37,2013-03-24 01:27:00,
2013-03-24 01:32:00,35.1,27.3,30.17,ENE,70,21.9,21.9,73,0.00,CLR,,0.00,WeatherDisplay:10.37,2013-03-24 01:32:00,
2013-03-24 01:37:00,35.2,27.1,30.17,East,93,19.6,19.6,72,0.00,CLR,,0.00,WeatherDisplay:10.37,2013-03-24 01:37:00,
2013-03-24 01:42:00,35.2,27.1,30.17,NNE,20,20.7,20.7,72,0.00,CLR,,0.00,WeatherDisplay:10.37,2013-03-24 01:42:00,
2013-03-24 01:47:00,35.2,27.4,30.17,East,99,19.6,19.6,73,0.00,CLR,,0.00,WeatherDisplay:10.37,2013-03-24 01:47:00,
2013-03-24 01:53:00,35.1,27.3,30.17,ESE,108,20.7,20.7,73,0.00,CLR,,0.00,WeatherDisplay:10.37,2013-03-24 01:53:00,
2013-03-24 01:58:00,35.1,27.3,30.17,ENE,70,16.1,16.1,73,0.00,CLR,,0.00,WeatherDisplay:10.37,2013-03-24 01:58:00,
2013-03-24 02:03:00,34.9,27.1,30.17,East,96,18.4,18.4,73,0.00,CLR,,0.00,WeatherDisplay:10.37,2013-03-24 02:03:00,
2013-03-24 02:09:00,35.0,26.9,30.17,East,93,26.5,26.5,72,0.00,CLR,,0.00,WeatherDisplay:10.37,2013-03-24 02:09:00,
2013-03-24 02:14:00,35.1,26.6,30.16,ENE,60,19.6,19.6,71,0.00,CLR,,0.00,WeatherDisplay:10.37,2013-03-24 02:14:00,
2013-03-24 02:19:00,35.1,27.0,30.16,ENE,71,20.7,20.7,72,0.00,CLR,,0.00,WeatherDisplay:10.37,2013-03-24 02:19:00,
2013-03-24 02:25:00,35.1,27.0,30.17,East,79,26.0,26.0,72,0.00,CLR,,0.00,WeatherDisplay:10.37,2013-03-24 02:25:00,
2013-03-24 02:30:00,35.0,27.2,30.17,East,99,20.7,20.7,73,0.00,CLR,,0.00,WeatherDisplay:10.37,2013-03-24 02:30:00,
2013-03-24 02:35:00,34.9,27.5,30.17,ENE,64,21.9,21.9,74,0.00,CLR,,0.00,WeatherDisplay:10.37,2013-03-24 02:35:00,
2013-03-24 02:40:00,34.8,27.4,30.17,ENE,71,19.6,19.6,74,0.00,CLR,,0.00,WeatherDisplay:10.37,2013-03-24 02:40:00,
2013-03-24 02:45:00,34.9,27.5,30.17,ENE,68,19.6,19.6,74,0.00,CLR,,0.00,WeatherDisplay:10.37,2013-03-24 02:45:00,
2013-03-24 02:51:00,34.9,27.1,30.17,ENE,65,23.0,23.0,73,0.00,CLR,,0.00,WeatherDisplay:10.37,2013-03-24 02:51:00,
2013-03-24 02:56:00,34.9,27.5,30.17,East,93,15.0,15.0,74,0.00,CLR,,0.00,WeatherDisplay:10.37,2013-03-24 02:56:00,
2013-03-24 03:02:00,34.9,27.1,30.17,East,93,23.0,23.0,73,0.00,CLR,,0.00,WeatherDisplay:10.37,2013-03-24 03:02:00,
2013-03-24 03:08:00,34.8,26.7,30.17,ENE,78,23.0,23.0,72,0.00,CLR,,0.00,WeatherDisplay:10.37,2013-03-24 03:08:00,
2013-03-24 03:13:00,34.9,26.8,30.17,ENE,68,20.7,20.7,72,0.00,CLR,,0.00,WeatherDisplay:10.37,2013-03-24 03:13:00,
2013-03-24 03:18:00,34.8,26.7,30.17,NE,55,21.9,21.9,72,0.00,CLR,,0.00,WeatherDisplay:10.37,2013-03-24 03:18:00,
2013-03-24 03:24:00,34.8,27.0,30.17,ENE,68,29.9,29.9,73,0.00,CLR,,0.00,WeatherDisplay:10.37,2013-03-24 03:24:00,
2013-03-24 03:29:00,34.8,26.7,30.17,ENE,65,23.0,23.0,72,0.00,CLR,,0.00,WeatherDisplay:10.37,2013-03-24 03:29:00,
2013-03-24 03:37:00,34.8,27.0,30.17,ENE,67,21.9,21.9,73,0.00,CLR,,0.00,WeatherDisplay:10.37,2013-03-24 03:37:00,
2013-03-24 03:42:00,34.8,27.4,30.18,NE,51,17.3,17.3,74,0.00,CLR,,0.00,WeatherDisplay:10.37,2013-03-24 03:42:00,
2013-03-24 03:47:00,34.8,27.4,30.17,East,101,16.1,16.1,74,0.00,CLR,,0.00,WeatherDisplay:10.37,2013-03-24 03:47:00,
2013-03-24 03:52:00,34.8,26.4,30.17,ESE,110,31.1,31.1,71,0.00,CLR,,0.00,WeatherDisplay:10.37,2013-03-24 03:52:00,
2013-03-24 03:58:00,34.8,26.0,30.17,ENE,75,20.7,20.7,70,0.00,CLR,,0.00,WeatherDisplay:10.37,2013-03-24 03:58:00,
2013-03-24 04:00:00,34.8,26.0,30.17,NE,53,17.3,17.3,70,0.00,CLR,,0.00,WeatherDisplay:10.37,2013-03-24 04:00:00,
2013-03-24 04:05:00,34.9,26.1,30.18,ENE,61,19.6,19.6,70,0.00,CLR,,0.00,WeatherDisplay:10.37,2013-03-24 04:05:00,
2013-03-24 04:12:00,34.8,26.4,30.18,East,89,14.0,14.0,71,0.00,CLR,,0.00,WeatherDisplay:10.37,2013-03-24 04:12:00,
2013-03-24 04:17:00,34.7,26.6,30.18,NE,53,19.6,19.6,72,0.00,CLR,,0.00,WeatherDisplay:10.37,2013-03-24 04:17:00,
2013-03-24 04:22:00,34.6,26.8,30.18,ENE,72,19.6,19.6,73,0.00,CLR,,0.00,WeatherDisplay:10.37,2013-03-24 04:22:00,
2013-03-24 04:28:00,34.6,27.2,30.18,East,87,19.6,19.6,74,0.00,CLR,,0.00,WeatherDisplay:10.37,2013-03-24 04:28:00,
2013-03-24 04:33:00,34.5,27.1,30.18,ENE,57,15.0,15.0,74,0.00,CLR,,0.00,WeatherDisplay:10.37,2013-03-24 04:33:00,
2013-03-24 04:39:00,34.5,27.1,30.18,ENE,75,21.9,21.9,74,0.00,CLR,,0.00,WeatherDisplay:10.37,2013-03-24 04:39:00,
2013-03-24 04:44:00,34.6,27.2,30.18,ENE,64,18.4,18.4,74,0.00,CLR,,0.00,WeatherDisplay:10.37,2013-03-24 04:44:00,
2013-03-24 04:50:00,34.5,27.1,30.18,East,81,17.3,17.3,74,0.00,CLR,,0.00,WeatherDisplay:10.37,2013-03-24 04:50:00,
2013-03-24 04:56:00,34.6,27.5,30.18,ESE,105,14.0,14.0,75,0.00,CLR,,0.00,WeatherDisplay:10.37,2013-03-24 04:56:00,
2013-03-24 05:01:00,34.5,27.4,30.18,ENE,72,17.0,17.0,75,0.00,CLR,,0.00,WeatherDisplay:10.37,2013-03-24 05:01:00,
2013-03-24 05:08:00,34.5,27.4,30.18,ENE,70,23.0,23.0,75,0.00,CLR,,0.00,WeatherDisplay:10.37,2013-03-24 05:08:00,
2013-03-24 05:13:00,34.6,27.8,30.18,ESE,107,15.0,15.0,76,0.00,CLR,,0.00,WeatherDisplay:10.37,2013-03-24 05:13:00,
2013-03-24 05:19:00,34.6,27.8,30.18,ENE,68,15.0,15.0,76,0.00,CLR,,0.00,WeatherDisplay:10.37,2013-03-24 05:19:00,
2013-03-24 05:24:00,34.5,27.4,30.18,ENE,65,19.6,19.6,75,0.00,CLR,,0.00,WeatherDisplay:10.37,2013-03-24 05:24:00,
2013-03-24 05:29:00,34.6,27.8,30.18,ESE,115,12.0,12.2,76,0.00,CLR,,0.00,WeatherDisplay:10.37,2013-03-24 05:29:00,
2013-03-24 05:34:00,34.7,27.9,30.18,ENE,74,19.6,19.6,76,0.00,CLR,,0.00,WeatherDisplay:10.37,2013-03-24 05:34:00,
2013-03-24 05:39:00,34.7,27.3,30.18,ENE,72,19.6,19.6,74,0.00,CLR,,0.00,WeatherDisplay:10.37,2013-03-24 05:39:00,
2013-03-24 05:45:00,34.7,27.3,30.18,ESE,115,26.5,26.5,74,0.00,CLR,,0.00,WeatherDisplay:10.37,2013-03-24 05:45:00,
2013-03-24 05:50:00,34.7,26.6,30.18,NNE,20,21.9,21.9,72,0.00,CLR,,0.00,WeatherDisplay:10.37,2013-03-24 05:50:00,
2013-03-24 05:55:00,34.7,27.3,30.18,ENE,77,20.7,20.7,74,0.00,CLR,,0.00,WeatherDisplay:10.37,2013-03-24 05:55:00,
2013-03-24 06:00:00,34.6,26.8,30.19,East,85,19.6,19.6,73,0.00,CLR,,0.00,WeatherDisplay:10.37,2013-03-24 06:00:00,
2013-03-24 06:05:00,34.6,27.2,30.19,ENE,60,15.0,15.0,74,0.00,CLR,,0.00,WeatherDisplay:10.37,2013-03-24 06:05:00,
2013-03-24 06:10:00,34.6,27.5,30.19,East,86,20.7,20.7,75,0.00,CLR,,0.00,WeatherDisplay:10.37,2013-03-24 06:10:00,
2013-03-24 06:15:00,34.6,27.2,30.19,ENE,61,23.0,23.0,74,0.00,CLR,,0.00,WeatherDisplay:10.37,2013-03-24 06:15:00,
2013-03-24 06:20:00,34.6,27.2,30.19,NE,54,18.4,18.4,74,0.00,CLR,,0.00,WeatherDisplay:10.37,2013-03-24 06:20:00,
2013-03-24 06:25:00,34.6,26.5,30.19,ENE,63,24.2,24.2,72,0.00,CLR,,0.00,WeatherDisplay:10.37,2013-03-24 06:25:00,
2013-03-24 06:31:00,34.7,26.6,30.19,ESE,103,20.7,20.7,72,0.00,CLR,,0.00,WeatherDisplay:10.37,2013-03-24 06:31:00,
2013-03-24 06:36:00,34.7,26.3,30.19,ENE,60,19.6,19.6,71,0.00,CLR,,0.00,WeatherDisplay:10.37,2013-03-24 06:36:00,
2013-03-24 06:41:00,34.7,26.6,30.20,ENE,60,13.8,13.8,72,0.00,CLR,,0.00,WeatherDisplay:10.37,2013-03-24 06:41:00,
2013-03-24 06:46:00,34.7,26.9,30.20,ENE,70,15.0,15.0,73,0.00,CLR,,0.00,WeatherDisplay:10.37,2013-03-24 06:46:00,
2013-03-24 06:51:00,34.7,26.9,30.20,East,81,12.0,12.0,73,0.00,CLR,,0.00,WeatherDisplay:10.37,2013-03-24 06:51:00,
2013-03-24 06:56:00,34.7,26.9,30.20,East,93,19.6,19.6,73,0.00,CLR,,0.00,WeatherDisplay:10.37,2013-03-24 06:56:00,
2013-03-24 07:01:00,34.8,26.7,30.20,ENE,61,23.0,23.0,72,0.00,CLR,,0.00,WeatherDisplay:10.37,2013-03-24 07:01:00,
2013-03-24 07:06:00,34.9,26.8,30.20,ENE,78,21.9,21.9,72,0.00,CLR,,0.00,WeatherDisplay:10.37,2013-03-24 07:06:00,
2013-03-24 07:12:00,35.0,26.5,30.20,East,95,20.7,20.7,71,0.00,CLR,,0.00,WeatherDisplay:10.37,2013-03-24 07:12:00,
2013-03-24 07:17:00,35.0,26.5,30.20,ENE,72,26.5,26.5,71,0.00,CLR,,0.00,WeatherDisplay:10.37,2013-03-24 07:17:00,
2013-03-24 07:22:00,35.1,26.3,30.20,ENE,77,24.2,24.2,70,0.00,CLR,,0.00,WeatherDisplay:10.37,2013-03-24 07:22:00,
2013-03-24 07:27:00,35.1,26.6,30.20,NE,44,21.9,21.9,71,0.00,CLR,,0.00,WeatherDisplay:10.37,2013-03-24 07:27:00,
2013-03-24 07:32:00,35.0,26.5,30.20,ENE,57,21.9,21.9,71,0.00,CLR,,0.00,WeatherDisplay:10.37,2013-03-24 07:32:00,
2013-03-24 07:37:00,35.0,26.5,30.20,East,93,16.1,16.1,71,0.00,CLR,,0.00,WeatherDisplay:10.37,2013-03-24 07:37:00,
2013-03-24 07:43:00,35.0,26.9,30.21,East,81,16.1,16.1,72,0.00,CLR,,0.00,WeatherDisplay:10.37,2013-03-24 07:43:00,
2013-03-24 07:48:00,35.0,27.5,30.21,ENE,64,11.0,11.0,74,0.00,CLR,,0.00,WeatherDisplay:10.37,2013-03-24 07:48:00,
2013-03-24 07:53:00,35.1,27.6,30.21,ESE,103,19.6,19.6,74,0.00,CLR,,0.00,WeatherDisplay:10.37,2013-03-24 07:53:00,
2013-03-24 07:58:00,35.2,26.7,30.21,ENE,67,13.8,13.8,71,0.00,CLR,,0.00,WeatherDisplay:10.37,2013-03-24 07:58:00,
2013-03-24 08:04:00,35.2,27.1,30.21,East,86,13.8,13.8,72,0.00,CLR,,0.00,WeatherDisplay:10.37,2013-03-24 08:04:00,
2013-03-24 08:09:00,35.4,26.9,30.21,East,99,25.3,25.3,71,0.00,CLR,,0.00,WeatherDisplay:10.37,2013-03-24 08:09:00,
2013-03-24 08:14:00,35.7,26.5,30.21,ENE,74,25.3,25.3,69,0.00,CLR,,0.00,WeatherDisplay:10.37,2013-03-24 08:14:00,
2013-03-24 08:20:00,35.7,26.5,30.21,ENE,62,21.9,21.9,69,0.00,CLR,,0.00,WeatherDisplay:10.37,2013-03-24 08:20:00,
2013-03-24 08:25:00,35.7,26.9,30.22,ESE,105,15.0,15.0,70,0.00,CLR,,0.00,WeatherDisplay:10.37,2013-03-24 08:25:00,
2013-03-24 08:30:00,35.7,26.2,30.21,ENE,78,19.6,19.6,68,0.00,CLR,,0.00,WeatherDisplay:10.37,2013-03-24 08:30:00,
2013-03-24 08:35:00,35.9,26.7,30.22,NNW,347,19.6,19.6,69,0.00,CLR,,0.00,WeatherDisplay:10.37,2013-03-24 08:35:00,
2013-03-24 08:40:00,36.0,26.8,30.22,ENE,60,16.1,16.1,69,0.00,CLR,,0.00,WeatherDisplay:10.37,2013-03-24 08:40:00,
2013-03-24 08:46:00,36.2,27.4,30.22,NE,53,14.0,14.0,70,0.00,CLR,,0.00,WeatherDisplay:10.37,2013-03-24 08:46:00,
2013-03-24 08:52:00,36.2,26.6,30.22,East,87,16.0,16.0,68,0.00,CLR,,0.00,WeatherDisplay:10.37,2013-03-24 08:52:00,
2013-03-24 08:57:00,36.1,27.6,30.22,ENE,70,16.1,16.1,71,0.00,CLR,,0.00,WeatherDisplay:10.37,2013-03-24 08:57:00,
2013-03-24 09:03:00,36.2,27.0,30.21,ENE,67,23.0,23.0,69,0.00,CLR,,0.00,WeatherDisplay:10.37,2013-03-24 09:03:00,
2013-03-24 09:09:00,36.4,26.5,30.22,ENE,65,28.8,28.8,67,0.00,CLR,,0.00,WeatherDisplay:10.37,2013-03-24 09:09:00,
2013-03-24 09:14:00,36.5,26.6,30.21,ENE,72,26.5,26.5,67,0.00,CLR,,0.00,WeatherDisplay:10.37,2013-03-24 09:14:00,
2013-03-24 09:19:00,36.4,26.5,30.21,ENE,59,26.5,26.5,67,0.00,CLR,,0.00,WeatherDisplay:10.37,2013-03-24 09:19:00,
2013-03-24 09:24:00,36.5,27.3,30.21,ESE,110,26.5,26.5,69,0.00,CLR,,0.00,WeatherDisplay:10.37,2013-03-24 09:24:00,
2013-03-24 09:29:00,36.6,27.4,30.22,ENE,74,18.0,18.0,69,0.00,CLR,,0.00,WeatherDisplay:10.37,2013-03-24 09:29:00,
2013-03-24 09:34:00,36.6,26.7,30.22,East,95,25.3,25.3,67,0.00,CLR,,0.00,WeatherDisplay:10.37,2013-03-24 09:34:00,
2013-03-24 09:39:00,36.7,26.8,30.22,NE,50,26.5,26.5,67,0.00,CLR,,0.00,WeatherDisplay:10.37,2013-03-24 09:39:00,
2013-03-24 09:44:00,36.7,26.4,30.22,East,93,24.0,24.0,66,0.00,CLR,,0.00,WeatherDisplay:10.37,2013-03-24 09:44:00,
2013-03-24 09:49:00,36.7,25.7,30.21,ENE,67,27.6,27.6,64,0.00,CLR,,0.00,WeatherDisplay:10.37,2013-03-24 09:49:00,
2013-03-24 09:56:00,36.8,26.5,30.21,NE,51,17.3,17.3,66,0.00,CLR,,0.00,WeatherDisplay:10.37,2013-03-24 09:56:00,
2013-03-24 10:02:00,36.7,26.4,30.21,ESE,114,19.6,19.6,66,0.00,CLR,,0.00,WeatherDisplay:10.37,2013-03-24 10:02:00,
2013-03-24 10:07:00,37.1,27.2,30.22,East,79,16.1,16.1,67,0.00,CLR,,0.00,WeatherDisplay:10.37,2013-03-24 10:07:00,
2013-03-24 10:12:00,37.2,26.9,30.22,NE,36,20.7,20.7,66,0.00,CLR,,0.00,WeatherDisplay:10.37,2013-03-24 10:12:00,
2013-03-24 10:17:00,37.3,27.3,30.21,NE,40,17.0,17.0,67,0.00,CLR,,0.00,WeatherDisplay:10.37,2013-03-24 10:17:00,
2013-03-24 10:22:00,37.1,27.2,30.22,East,98,25.3,25.3,67,0.00,CLR,,0.00,WeatherDisplay:10.37,2013-03-24 10:22:00,
2013-03-24 10:28:00,37.4,27.4,30.22,East,91,18.4,18.4,67,0.00,CLR,,0.00,WeatherDisplay:10.37,2013-03-24 10:28:00,
2013-03-24 10:33:00,37.4,27.4,30.22,ENE,70,20.7,20.7,67,0.00,CLR,,0.00,WeatherDisplay:10.37,2013-03-24 10:33:00,
2013-03-24 10:38:00,37.5,26.8,30.21,NE,53,25.3,25.3,65,0.00,CLR,,0.00,WeatherDisplay:10.37,2013-03-24 10:38:00,
2013-03-24 10:43:00,37.6,26.9,30.21,ENE,60,27.6,27.6,65,0.00,CLR,,0.00,WeatherDisplay:10.37,2013-03-24 10:43:00,
2013-03-24 10:49:00,38.0,26.9,30.21,ENE,76,17.3,17.3,64,0.00,CLR,,0.00,WeatherDisplay:10.37,2013-03-24 10:49:00,
2013-03-24 10:55:00,38.0,26.1,30.21,NNE,20,23.0,23.0,62,0.00,CLR,,0.00,WeatherDisplay:10.37,2013-03-24 10:55:00,
2013-03-24 11:00:00,37.6,26.1,30.21,NE,47,25.3,25.3,63,0.00,CLR,,0.00,WeatherDisplay:10.37,2013-03-24 11:00:00,
2013-03-24 11:06:00,37.4,27.1,30.21,NE,52,19.6,19.6,66,0.00,CLR,,0.00,WeatherDisplay:10.37,2013-03-24 11:06:00,
2013-03-24 11:11:00,37.1,27.2,30.21,ENE,70,25.3,25.3,67,0.00,CLR,,0.00,WeatherDisplay:10.37,2013-03-24 11:11:00,
2013-03-24 11:18:00,37.2,26.9,30.21,East,79,26.5,26.5,66,0.00,CLR,,0.00,WeatherDisplay:10.37,2013-03-24 11:18:00,
2013-03-24 11:23:00,37.6,26.5,30.21,East,79,29.0,29.0,64,0.00,CLR,,0.00,WeatherDisplay:10.37,2013-03-24 11:23:00,
2013-03-24 11:28:00,37.8,25.5,30.21,ENE,67,26.5,26.5,61,0.00,CLR,,0.00,WeatherDisplay:10.37,2013-03-24 11:28:00,
2013-03-24 11:33:00,37.8,26.7,30.21,ENE,67,28.0,28.0,64,0.00,CLR,,0.00,WeatherDisplay:10.37,2013-03-24 11:33:00,
2013-03-24 11:39:00,37.7,26.2,30.21,ENE,77,27.6,27.6,63,0.00,CLR,,0.00,WeatherDisplay:10.37,2013-03-24 11:39:00,
2013-03-24 11:45:00,37.7,25.8,30.21,ESE,106,25.3,25.3,62,0.00,CLR,,0.00,WeatherDisplay:10.37,2013-03-24 11:45:00,
2013-03-24 11:50:00,37.5,26.0,30.21,East,101,28.8,28.8,63,0.00,CLR,,0.00,WeatherDisplay:10.37,2013-03-24 11:50:00,
2013-03-24 11:56:00,37.5,25.3,30.21,NE,55,29.9,29.9,61,0.00,CLR,,0.00,WeatherDisplay:10.37,2013-03-24 11:56:00,
2013-03-24 12:01:00,37.7,25.8,30.21,East,85,20.7,20.7,62,0.00,CLR,,0.00,WeatherDisplay:10.37,2013-03-24 12:01:00,
2013-03-24 12:07:00,37.6,26.5,30.21,ESE,102,24.2,24.2,64,0.00,CLR,,0.00,WeatherDisplay:10.37,2013-03-24 12:07:00,
2013-03-24 12:12:00,37.5,26.8,30.21,ENE,64,25.3,25.3,65,0.00,CLR,,0.00,WeatherDisplay:10.37,2013-03-24 12:12:00,
2013-03-24 12:17:00,37.6,26.9,30.21,ENE,59,19.6,19.6,65,0.00,CLR,,0.00,WeatherDisplay:10.37,2013-03-24 12:17:00,
2013-03-24 12:22:00,37.6,26.9,30.21,East,99,16.0,16.0,65,0.00,CLR,,0.00,WeatherDisplay:10.37,2013-03-24 12:22:00,
2013-03-24 12:27:00,37.6,26.5,30.22,East,79,24.2,24.2,64,0.00,CLR,,0.00,WeatherDisplay:10.37,2013-03-24 12:27:00,
2013-03-24 12:33:00,37.4,26.3,30.21,ESE,102,27.6,27.6,64,0.00,CLR,,0.00,WeatherDisplay:10.37,2013-03-24 12:33:00,
2013-03-24 12:38:00,37.5,26.4,30.21,ENE,72,19.6,19.6,64,0.00,CLR,,0.00,WeatherDisplay:10.37,2013-03-24 12:38:00,
2013-03-24 12:43:00,37.4,25.6,30.21,ENE,61,24.2,24.2,62,0.00,CLR,,0.00,WeatherDisplay:10.37,2013-03-24 12:43:00,
2013-03-24 12:48:00,37.5,25.3,30.22,East,89,24.2,24.2,61,0.00,CLR,,0.00,WeatherDisplay:10.37,2013-03-24 12:48:00,
2013-03-24 12:53:00,37.6,25.7,30.22,ENE,63,19.6,19.6,62,0.00,CLR,,0.00,WeatherDisplay:10.37,2013-03-24 12:53:00,
2013-03-24 12:58:00,37.7,26.2,30.21,East,89,18.0,18.0,63,0.00,CLR,,0.00,WeatherDisplay:10.37,2013-03-24 12:58:00,
2013-03-24 13:03:00,37.5,26.8,30.22,East,82,18.4,18.4,65,0.00,CLR,,0.00,WeatherDisplay:10.37,2013-03-24 13:03:00,
2013-03-24 13:08:00,37.1,26.0,30.22,NE,50,20.7,20.7,64,0.00,CLR,,0.00,WeatherDisplay:10.37,2013-03-24 13:08:00,
2013-03-24 13:13:00,37.1,26.8,30.22,East,91,20.7,20.7,66,0.00,CLR,,0.00,WeatherDisplay:10.37,2013-03-24 13:13:00,
2013-03-24 13:18:00,37.2,26.9,30.22,NE,50,24.2,24.2,66,0.00,CLR,,0.00,WeatherDisplay:10.37,2013-03-24 13:18:00,
2013-03-24 13:24:00,37.3,25.8,30.22,ENE,74,23.0,23.0,63,0.00,CLR,,0.00,WeatherDisplay:10.37,2013-03-24 13:24:00,
2013-03-24 13:30:00,37.4,25.9,30.22,SE,142,34.5,34.5,63,0.00,CLR,,0.00,WeatherDisplay:10.37,2013-03-24 13:30:00,
2013-03-24 13:35:00,37.5,26.0,30.22,East,95,26.5,26.5,63,0.00,CLR,,0.00,WeatherDisplay:10.37,2013-03-24 13:35:00,
2013-03-24 13:40:00,37.5,26.0,30.22,ESE,116,24.2,24.2,63,0.00,CLR,,0.00,WeatherDisplay:10.37,2013-03-24 13:40:00,
2013-03-24 13:47:00,37.4,26.7,30.22,East,99,32.2,32.2,65,0.00,CLR,,0.00,WeatherDisplay:10.37,2013-03-24 13:47:00,
2013-03-24 13:52:00,37.3,26.6,30.22,NE,36,23.0,23.0,65,0.00,CLR,,0.00,WeatherDisplay:10.37,2013-03-24 13:52:00,
2013-03-24 13:58:00,37.5,26.0,30.22,ESE,105,24.2,24.2,63,0.00,CLR,,0.00,WeatherDisplay:10.37,2013-03-24 13:58:00,
2013-03-24 14:04:00,37.6,26.9,30.22,East,81,24.2,24.2,65,0.00,CLR,,0.00,WeatherDisplay:10.37,2013-03-24 14:04:00,
2013-03-24 14:09:00,37.4,27.4,30.22,ENE,72,25.3,25.3,67,0.00,CLR,,0.00,WeatherDisplay:10.37,2013-03-24 14:09:00,
2013-03-24 14:15:00,37.2,27.2,30.21,ESE,116,19.6,19.6,67,0.00,CLR,,0.00,WeatherDisplay:10.37,2013-03-24 14:15:00,
2013-03-24 14:20:00,37.2,27.2,30.22,East,81,26.5,26.5,67,0.00,CLR,,0.00,WeatherDisplay:10.37,2013-03-24 14:20:00,
2013-03-24 14:26:00,37.3,25.5,30.22,East,81,33.4,33.4,62,0.00,CLR,,0.00,WeatherDisplay:10.37,2013-03-24 14:26:00,
2013-03-24 14:31:00,37.4,25.6,30.22,ENE,63,27.6,27.6,62,0.00,CLR,,0.00,WeatherDisplay:10.37,2013-03-24 14:31:00,
2013-03-24 14:36:00,37.5,26.8,30.22,East,79,18.4,18.4,65,0.00,CLR,,0.00,WeatherDisplay:10.37,2013-03-24 14:36:00,
2013-03-24 14:41:00,37.3,26.6,30.22,ENE,71,25.3,25.3,65,0.00,CLR,,0.00,WeatherDisplay:10.37,2013-03-24 14:41:00,
2013-03-24 14:47:00,37.2,27.6,30.22,NE,56,19.6,19.6,68,0.00,CLR,,0.00,WeatherDisplay:10.37,2013-03-24 14:47:00,
2013-03-24 14:52:00,37.1,27.5,30.22,NE,47,21.0,21.0,68,0.00,CLR,,0.00,WeatherDisplay:10.37,2013-03-24 14:52:00,
2013-03-24 14:57:00,37.2,27.6,30.22,East,86,25.3,25.3,68,0.00,CLR,,0.00,WeatherDisplay:10.37,2013-03-24 14:57:00,
2013-03-24 15:02:00,37.2,27.6,30.22,ENE,57,24.2,24.2,68,0.00,CLR,,0.00,WeatherDisplay:10.37,2013-03-24 15:02:00,
2013-03-24 15:07:00,37.2,26.9,30.22,NE,47,27.6,27.6,66,0.00,CLR,,0.00,WeatherDisplay:10.37,2013-03-24 15:07:00,
2013-03-24 15:13:00,37.3,27.0,30.22,East,88,19.6,19.6,66,0.00,CLR,,0.00,WeatherDisplay:10.37,2013-03-24 15:13:00,
2013-03-24 15:19:00,37.3,27.0,30.22,East,89,24.0,24.0,66,0.00,CLR,,0.00,WeatherDisplay:10.37,2013-03-24 15:19:00,
2013-03-24 15:24:00,37.2,26.9,30.22,ESE,105,23.0,23.0,66,0.00,CLR,,0.00,WeatherDisplay:10.37,2013-03-24 15:24:00,
2013-03-24 15:29:00,37.0,27.1,30.22,NNE,23,24.2,24.2,67,0.00,CLR,,0.00,WeatherDisplay:10.37,2013-03-24 15:29:00,
2013-03-24 15:35:00,36.9,27.7,30.22,ENE,70,18.4,18.4,69,0.00,CLR,,0.00,WeatherDisplay:10.37,2013-03-24 15:35:00,
2013-03-24 15:40:00,36.9,27.7,30.22,NNE,29,23.0,23.0,69,0.00,CLR,,0.00,WeatherDisplay:10.37,2013-03-24 15:40:00,
2013-03-24 15:46:00,36.8,27.6,30.22,East,93,23.0,23.0,69,0.00,CLR,,0.00,WeatherDisplay:10.37,2013-03-24 15:46:00,
2013-03-24 15:51:00,36.7,28.2,30.22,ENE,61,21.9,21.9,71,0.00,CLR,,0.00,WeatherDisplay:10.37,2013-03-24 15:51:00,
2013-03-24 15:57:00,36.6,28.8,30.23,ENE,57,24.2,24.2,73,0.00,CLR,,0.00,WeatherDisplay:10.37,2013-03-24 15:57:00,
2013-03-24 16:04:00,36.4,28.2,30.22,NNE,15,19.6,19.6,72,0.00,CLR,,0.00,WeatherDisplay:10.37,2013-03-24 16:04:00,
2013-03-24 16:09:00,36.5,27.6,30.22,East,91,24.2,24.2,70,0.00,CLR,,0.00,WeatherDisplay:10.37,2013-03-24 16:09:00,
2013-03-24 16:14:00,36.5,27.6,30.22,SE,136,26.5,26.5,70,0.00,CLR,,0.00,WeatherDisplay:10.37,2013-03-24 16:14:00,
2013-03-24 16:19:00,36.5,27.6,30.22,East,84,23.0,23.0,70,0.00,CLR,,0.00,WeatherDisplay:10.37,2013-03-24 16:19:00,
2013-03-24 16:24:00,36.6,27.4,30.22,ENE,61,23.0,23.0,69,0.00,CLR,,0.00,WeatherDisplay:10.37,2013-03-24 16:24:00,
2013-03-24 16:29:00,36.6,27.4,30.23,ESE,113,23.0,23.0,69,0.00,CLR,,0.00,WeatherDisplay:10.37,2013-03-24 16:29:00,
2013-03-24 16:34:00,36.6,27.0,30.23,East,96,24.2,24.2,68,0.00,CLR,,0.00,WeatherDisplay:10.37,2013-03-24 16:34:00,
2013-03-24 16:39:00,36.7,26.8,30.22,ENE,65,23.0,23.0,67,0.00,CLR,,0.00,WeatherDisplay:10.37,2013-03-24 16:39:00,
2013-03-24 16:44:00,36.8,26.1,30.22,ESE,102,21.9,21.9,65,0.00,CLR,,0.00,WeatherDisplay:10.37,2013-03-24 16:44:00,
2013-03-24 16:49:00,36.9,25.5,30.23,ENE,77,24.2,24.2,63,0.00,CLR,,0.00,WeatherDisplay:10.37,2013-03-24 16:49:00,
2013-03-24 16:54:00,36.8,25.4,30.23,East,81,28.8,28.8,63,0.00,CLR,,0.00,WeatherDisplay:10.37,2013-03-24 16:54:00,
2013-03-24 16:59:00,36.8,25.8,30.23,NE,34,23.0,23.0,64,0.00,CLR,,0.00,WeatherDisplay:10.37,2013-03-24 16:59:00,
2013-03-24 17:04:00,36.8,26.5,30.23,ENE,75,13.8,14.7,66,0.00,CLR,,0.00,WeatherDisplay:10.37,2013-03-24 17:04:00,
2013-03-24 17:09:00,36.7,26.8,30.23,ENE,61,24.2,24.2,67,0.00,CLR,,0.00,WeatherDisplay:10.37,2013-03-24 17:09:00,
2013-03-24 17:17:00,36.5,27.6,30.23,SE,140,21.9,21.9,70,0.00,CLR,,0.00,WeatherDisplay:10.37,2013-03-24 17:17:00,
2013-03-24 17:23:00,36.4,28.2,30.23,ENE,63,16.1,16.1,72,0.00,CLR,,0.00,WeatherDisplay:10.37,2013-03-24 17:23:00,
2013-03-24 17:28:00,36.2,28.4,30.23,ENE,64,26.5,26.5,73,0.00,CLR,,0.00,WeatherDisplay:10.37,2013-03-24 17:28:00,
2013-03-24 17:33:00,36.0,28.5,30.23,NE,54,24.2,24.2,74,0.00,CLR,,0.00,WeatherDisplay:10.37,2013-03-24 17:33:00,
2013-03-24 17:38:00,35.9,28.4,30.24,ENE,63,15.0,15.0,74,0.00,CLR,,0.00,WeatherDisplay:10.37,2013-03-24 17:38:00,
2013-03-24 17:43:00,35.9,28.7,30.24,NW,321,18.4,18.4,75,0.00,CLR,,0.00,WeatherDisplay:10.37,2013-03-24 17:43:00,
2013-03-24 17:48:00,35.9,28.7,30.24,ESE,103,15.0,15.0,75,0.00,CLR,,0.00,WeatherDisplay:10.37,2013-03-24 17:48:00,
2013-03-24 17:54:00,35.9,28.7,30.24,ESE,109,19.6,19.6,75,0.00,CLR,,0.00,WeatherDisplay:10.37,2013-03-24 17:54:00,
2013-03-24 18:02:00,36.0,28.8,30.24,ENE,68,17.3,17.3,75,0.00,CLR,,0.00,WeatherDisplay:10.37,2013-03-24 18:02:00,
2013-03-24 18:07:00,36.0,29.2,30.24,East,81,20.7,20.7,76,0.00,CLR,,0.00,WeatherDisplay:10.37,2013-03-24 18:07:00,
2013-03-24 18:12:00,36.0,28.8,30.24,NE,54,26.5,26.5,75,0.00,CLR,,0.00,WeatherDisplay:10.37,2013-03-24 18:12:00,
2013-03-24 18:18:00,36.0,28.8,30.24,ENE,64,26.5,26.5,75,0.00,CLR,,0.00,WeatherDisplay:10.37,2013-03-24 18:18:00,
2013-03-24 18:23:00,36.0,29.2,30.24,ENE,61,18.0,18.0,76,0.00,CLR,,0.00,WeatherDisplay:10.37,2013-03-24 18:23:00,
2013-03-24 18:28:00,35.9,28.4,30.24,ENE,57,25.3,25.3,74,0.00,CLR,,0.00,WeatherDisplay:10.37,2013-03-24 18:28:00,
2013-03-24 18:34:00,35.9,28.7,30.24,East,89,18.4,18.4,75,0.00,CLR,,0.00,WeatherDisplay:10.37,2013-03-24 18:34:00,
2013-03-24 18:39:00,35.8,29.0,30.24,ENE,60,12.7,12.7,76,0.00,CLR,,0.00,WeatherDisplay:10.37,2013-03-24 18:39:00,
2013-03-24 18:44:00,35.8,28.6,30.25,ENE,64,19.6,19.6,75,0.00,CLR,,0.00,WeatherDisplay:10.37,2013-03-24 18:44:00,
2013-03-24 18:50:00,35.8,28.3,30.25,ESE,109,20.0,20.0,74,0.00,CLR,,0.00,WeatherDisplay:10.37,2013-03-24 18:50:00,
2013-03-24 18:55:00,35.8,28.6,30.25,ENE,75,13.0,13.0,75,0.00,CLR,,0.00,WeatherDisplay:10.37,2013-03-24 18:55:00,
2013-03-24 19:01:00,35.8,28.3,30.25,ENE,77,18.4,18.4,74,0.00,CLR,,0.00,WeatherDisplay:10.37,2013-03-24 19:01:00,
2013-03-24 19:08:00,35.8,28.3,30.25,East,88,13.8,13.8,74,0.00,CLR,,0.00,WeatherDisplay:10.37,2013-03-24 19:08:00,
2013-03-24 19:13:00,35.8,28.6,30.26,ENE,70,15.0,15.0,75,0.00,CLR,,0.00,WeatherDisplay:10.37,2013-03-24 19:13:00,
2013-03-24 19:18:00,35.7,28.6,30.26,East,96,17.3,17.3,75,0.00,CLR,,0.00,WeatherDisplay:10.37,2013-03-24 19:18:00,
2013-03-24 19:23:00,35.7,28.6,30.26,ENE,77,15.0,15.0,75,0.00,CLR,,0.00,WeatherDisplay:10.37,2013-03-24 19:23:00,
2013-03-24 19:28:00,35.7,28.9,30.26,ESE,117,19.6,19.6,76,0.00,CLR,,0.00,WeatherDisplay:10.37,2013-03-24 19:28:00,
2013-03-24 19:34:00,35.6,28.5,30.26,East,81,17.3,17.3,75,0.00,CLR,,0.00,WeatherDisplay:10.37,2013-03-24 19:34:00,
2013-03-24 19:40:00,35.6,28.5,30.26,SE,137,23.0,23.0,75,0.00,CLR,,0.00,WeatherDisplay:10.37,2013-03-24 19:40:00,
2013-03-24 19:45:00,35.6,28.1,30.26,East,92,21.9,21.9,74,0.00,CLR,,0.00,WeatherDisplay:10.37,2013-03-24 19:45:00,
2013-03-24 19:51:00,35.6,28.1,30.26,SE,127,17.3,17.3,74,0.00,CLR,,0.00,WeatherDisplay:10.37,2013-03-24 19:51:00,
2013-03-24 19:57:00,35.5,28.0,30.26,NE,50,15.0,15.0,74,0.00,CLR,,0.00,WeatherDisplay:10.37,2013-03-24 19:57:00,
2013-03-24 20:02:00,35.3,28.2,30.26,East,100,13.8,13.8,75,0.00,CLR,,0.00,WeatherDisplay:10.37,2013-03-24 20:02:00,
2013-03-24 20:07:00,35.4,28.3,30.27,East,91,20.7,20.7,75,0.00,CLR,,0.00,WeatherDisplay:10.37,2013-03-24 20:07:00,
2013-03-24 20:13:00,35.4,28.3,30.27,ENE,77,17.3,17.3,75,0.00,CLR,,0.00,WeatherDisplay:10.37,2013-03-24 20:13:00,
2013-03-24 20:18:00,35.3,28.2,30.27,East,80,18.4,18.4,75,0.00,CLR,,0.00,WeatherDisplay:10.37,2013-03-24 20:18:00,
2013-03-24 20:24:00,35.3,28.2,30.28,NNE,26,10.4,10.4,75,0.00,CLR,,0.00,WeatherDisplay:10.37,2013-03-24 20:24:00,
2013-03-24 20:29:00,35.3,28.2,30.28,East,86,13.8,13.8,75,0.00,CLR,,0.00,WeatherDisplay:10.37,2013-03-24 20:29:00,
2013-03-24 20:34:00,35.4,28.3,30.28,ENE,65,11.5,11.5,75,0.00,CLR,,0.00,WeatherDisplay:10.37,2013-03-24 20:34:00,
2013-03-24 20:40:00,35.5,28.0,30.28,ENE,75,11.5,11.5,74,0.00,CLR,,0.00,WeatherDisplay:10.37,2013-03-24 20:40:00,
2013-03-24 20:45:00,35.5,28.4,30.28,ESE,109,10.4,10.4,75,0.00,CLR,,0.00,WeatherDisplay:10.37,2013-03-24 20:45:00,
2013-03-24 20:52:00,35.5,28.4,30.28,NE,44,11.5,11.5,75,0.00,CLR,,0.00,WeatherDisplay:10.37,2013-03-24 20:52:00,
2013-03-24 20:57:00,35.4,28.6,30.28,ENE,63,13.8,13.8,76,0.00,CLR,,0.00,WeatherDisplay:10.37,2013-03-24 20:57:00,
2013-03-24 21:02:00,35.4,28.6,30.28,NE,48,19.6,19.6,76,0.00,CLR,,0.00,WeatherDisplay:10.37,2013-03-24 21:02:00,
2013-03-24 21:08:00,35.5,28.7,30.28,NE,51,17.3,17.3,76,0.00,CLR,,0.00,WeatherDisplay:10.37,2013-03-24 21:08:00,
2013-03-24 21:14:00,35.5,28.7,30.28,ESE,115,19.6,19.6,76,0.00,CLR,,0.00,WeatherDisplay:10.37,2013-03-24 21:14:00,
2013-03-24 21:19:00,35.6,28.5,30.28,ENE,60,19.6,19.6,75,0.00,CLR,,0.00,WeatherDisplay:10.37,2013-03-24 21:19:00,
2013-03-24 21:24:00,35.6,28.8,30.28,East,79,13.8,13.8,76,0.00,CLR,,0.00,WeatherDisplay:10.37,2013-03-24 21:24:00,
2013-03-24 21:29:00,35.4,28.6,30.28,ENE,65,13.0,13.0,76,0.00,CLR,,0.00,WeatherDisplay:10.37,2013-03-24 21:29:00,
2013-03-24 21:35:00,35.3,28.8,30.29,ESE,107,10.4,10.4,77,0.00,CLR,,0.00,WeatherDisplay:10.37,2013-03-24 21:35:00,
2013-03-24 21:40:00,35.2,29.0,30.29,ENE,68,9.2,9.2,78,0.00,CLR,,0.00,WeatherDisplay:10.37,2013-03-24 21:40:00,
2013-03-24 21:46:00,35.1,28.9,30.29,East,91,11.5,11.5,78,0.00,CLR,,0.00,WeatherDisplay:10.37,2013-03-24 21:46:00,
2013-03-24 21:51:00,35.1,28.9,30.29,East,86,12.7,12.7,78,0.00,CLR,,0.00,WeatherDisplay:10.37,2013-03-24 21:51:00,
2013-03-24 21:56:00,35.2,29.0,30.29,East,87,11.5,11.5,78,0.00,CLR,,0.00,WeatherDisplay:10.37,2013-03-24 21:56:00,
2013-03-24 22:02:00,35.3,29.1,30.29,East,83,11.5,11.5,78,0.00,CLR,,0.00,WeatherDisplay:10.37,2013-03-24 22:02:00,
2013-03-24 22:07:00,35.3,28.8,30.29,ENE,75,13.8,13.8,77,0.00,CLR,,0.00,WeatherDisplay:10.37,2013-03-24 22:07:00,
2013-03-24 22:12:00,35.4,29.2,30.29,NE,39,10.4,10.4,78,0.00,CLR,,0.00,WeatherDisplay:10.37,2013-03-24 22:12:00,
2013-03-24 22:17:00,35.2,29.0,30.30,SE,140,13.8,13.8,78,0.00,CLR,,0.00,WeatherDisplay:10.37,2013-03-24 22:17:00,
2013-03-24 22:23:00,35.1,29.2,30.30,ENE,78,5.8,5.8,79,0.00,CLR,,0.00,WeatherDisplay:10.37,2013-03-24 22:23:00,
2013-03-24 22:29:00,35.2,29.3,30.30,ENE,77,13.8,13.8,79,0.00,CLR,,0.00,WeatherDisplay:10.37,2013-03-24 22:29:00,
2013-03-24 22:34:00,35.2,29.3,30.30,ESE,105,8.1,8.1,79,0.00,CLR,,0.00,WeatherDisplay:10.37,2013-03-24 22:34:00,
2013-03-24 22:39:00,35.3,29.4,30.30,ENE,70,12.7,12.7,79,0.00,CLR,,0.00,WeatherDisplay:10.37,2013-03-24 22:39:00,
2013-03-24 22:44:00,35.3,29.4,30.30,ENE,61,9.2,9.2,79,0.00,CLR,,0.00,WeatherDisplay:10.37,2013-03-24 22:44:00,
2013-03-24 22:49:00,35.2,29.0,30.30,ENE,61,10.4,10.4,78,0.00,CLR,,0.00,WeatherDisplay:10.37,2013-03-24 22:49:00,
2013-03-24 22:54:00,35.3,29.4,30.30,ENE,77,8.1,8.1,79,0.00,CLR,,0.00,WeatherDisplay:10.37,2013-03-24 22:54:00,
2013-03-24 22:59:00,35.2,29.3,30.30,East,83,9.2,9.2,79,0.00,CLR,,0.00,WeatherDisplay:10.37,2013-03-24 22:59:00,
2013-03-24 23:07:00,35.1,28.9,30.30,East,86,11.5,11.5,78,0.00,CLR,,0.00,WeatherDisplay:10.37,2013-03-24 23:07:00,
2013-03-24 23:12:00,35.2,29.3,30.30,ENE,71,10.4,10.4,79,0.00,CLR,,0.00,WeatherDisplay:10.37,2013-03-24 23:12:00,
2013-03-24 23:17:00,35.2,29.3,30.30,ENE,67,11.5,11.5,79,0.00,CLR,,0.00,WeatherDisplay:10.37,2013-03-24 23:17:00,
2013-03-24 23:22:00,35.1,29.6,30.30,ENE,74,11.5,11.5,80,0.00,CLR,,0.00,WeatherDisplay:10.37,2013-03-24 23:22:00,
2013-03-24 23:27:00,34.9,29.4,30.30,East,91,9.2,9.2,80,0.00,CLR,,0.00,WeatherDisplay:10.37,2013-03-24 23:27:00,
2013-03-24 23:32:00,34.8,29.3,30.30,East,81,13.8,13.8,80,0.00,CLR,,0.00,WeatherDisplay:10.37,2013-03-24 23:32:00,
2013-03-24 23:37:00,34.9,29.7,30.30,ENE,60,10.4,10.4,81,0.00,CLR,,0.00,WeatherDisplay:10.37,2013-03-24 23:37:00,
2013-03-24 23:43:00,34.9,29.4,30.30,NE,39,11.5,11.5,80,0.00,CLR,,0.00,WeatherDisplay:10.37,2013-03-24 23:43:00,
2013-03-24 23:48:00,34.9,29.4,30.30,ENE,57,11.5,11.5,80,0.00,CLR,,0.00,WeatherDisplay:10.37,2013-03-24 23:48:00,
2013-03-24 23:53:00,35.0,29.5,30.31,East,81,11.5,11.5,80,0.00,CLR,,0.00,WeatherDisplay:10.37,2013-03-24 23:53:00,
2013-03-24 23:58:00,35.0,29.1,30.31,ENE,68,12.7,12.7,79,0.00,CLR,,0.00,WeatherDisplay:10.37,2013-03-24 23:58:00,